Archival Weather

Centro Met. Antartico Pdte. E

Centro Met. Antartico Pdte. E, Antarctica (SCRM)

Report from: Thursday, September 21, 2023 6:00 AM UTC
Current time: Friday, February 23, 2024 7:39 PM UTC

Current weather – Weather history – Daily summaries
Weather forecast

Temperature-9.0°C (15.8°F)
Wind chill-16.6°C (2.0°F)
Dew point-13.0°C (8.6°F)
Winds 11 kts (5.7 m/s, 12.7 mph) West (270°)
Visibility6.2 mi. (10 km)
Clouds Ceiling: Overcast 2,000 ft. (610 m)
Altimeter29.35 in.Hg (994 mB)
Relative humidity73 %
Density altitude-2,287 ft. (-697 m)
Remarks No significant changes expected in the next two hours
Flight conditions Marginal Visual Meteorological Conditions
Raw dataSCRM 210600Z 27011KT 9999 OVC020 M09/M13 Q0994 NOSIG
An error has occurred. This application may no longer respond until reloaded. Reload 🗙